Time;durP1;ratioP1;P1;durP2;ratioP2;P2;SDS_P1;SDS_P2;PMS_P1;PMS_P2;Temp;Humidity;BMP_temperature;BMP_pressure;BME280_temperature;BME280_humidity;BME280_pressure;Samples;Min_cycle;Max_cycle;Signal;HPM_P1;HPM_P2
2022/10/20 00:01:12;;;;;;;4.40;2.20;;;;;;;7.53;88.38;102626.38;4947960;28;20209;-77
2022/10/20 00:03:37;;;;;;;7.73;2.20;;;;;;;7.53;88.23;102628.91;4950174;28;20197;-77
2022/10/20 00:06:21;;;;;;;2.77;1.90;;;;;;;7.57;88.20;102621.56;4946688;29;20194;-77
2022/10/20 00:08:47;;;;;;;3.30;2.20;;;;;;;7.58;88.00;102615.66;4949672;29;20198;-77
2022/10/20 00:11:14;;;;;;;2.63;1.90;;;;;;;7.55;88.30;102607.81;4949457;28;20229;-76
2022/10/20 00:13:43;;;;;;;3.03;2.13;;;;;;;7.56;87.99;102619.78;4949214;28;20354;-77
2022/10/20 00:16:09;;;;;;;3.57;2.07;;;;;;;7.49;88.31;102621.88;4948384;28;20216;-76
2022/10/20 00:18:35;;;;;;;4.67;1.83;;;;;;;7.49;88.41;102622.75;4944657;28;20216;-76
2022/10/20 00:21:11;;;;;;;2.10;1.90;;;;;;;7.42;88.54;102614.66;4950257;29;20573;-76
2022/10/20 00:23:36;;;;;;;3.20;2.40;;;;;;;7.43;88.77;102622.41;4949911;28;20247;-76
2022/10/20 00:26:02;;;;;;;3.13;2.23;;;;;;;7.40;88.74;102611.13;4949394;28;20263;-77
2022/10/20 00:28:27;;;;;;;4.67;2.03;;;;;;;7.42;89.00;102610.41;4950712;28;20807;-76
2022/10/20 00:30:56;;;;;;;2.83;2.10;;;;;;;7.42;89.58;102594.28;4950415;28;20221;-77
2022/10/20 00:33:22;;;;;;;2.47;2.10;;;;;;;7.39;88.87;102601.72;4950025;28;20193;-77
2022/10/20 00:35:47;;;;;;;4.57;2.03;;;;;;;7.40;89.09;102603.47;4951737;28;20201;-77
2022/10/20 00:38:12;;;;;;;3.27;2.13;;;;;;;7.37;89.50;102603.31;4950276;28;20197;-76
2022/10/20 00:40:38;;;;;;;4.00;2.20;;;;;;;7.41;89.28;102603.56;4952104;28;20298;-76
2022/10/20 00:43:03;;;;;;;2.10;1.73;;;;;;;7.36;89.47;102607.50;4952933;28;20196;-76
2022/10/20 00:45:29;;;;;;;2.37;2.00;;;;;;;7.36;89.89;102599.88;4954541;28;20274;-76
2022/10/20 00:47:59;;;;;;;2.43;1.80;;;;;;;7.31;89.77;102595.28;4950273;29;20241;-77
2022/10/20 00:50:30;;;;;;;3.20;2.20;;;;;;;7.31;90.13;102588.53;4943865;29;20280;-76
2022/10/20 00:52:56;;;;;;;3.50;2.27;;;;;;;7.31;90.39;102577.44;4950259;29;20189;-76
2022/10/20 00:55:26;;;;;;;4.87;2.10;;;;;;;7.31;89.93;102572.34;4954001;28;20185;-76
2022/10/20 00:57:54;;;;;;;3.13;1.93;;;;;;;7.28;89.79;102565.41;4953632;28;20212;-76
2022/10/20 01:00:20;;;;;;;3.30;2.17;;;;;;;7.27;90.06;102556.00;4953199;28;20224;-76
2022/10/20 01:02:47;;;;;;;3.83;2.00;;;;;;;7.27;90.60;102560.25;4953797;28;20189;-76
2022/10/20 01:05:13;;;;;;;4.80;2.53;;;;;;;7.25;90.25;102552.50;4953707;28;20927;-76
2022/10/20 01:07:38;;;;;;;2.93;1.93;;;;;;;7.24;90.51;102552.41;4952117;29;20197;-76
2022/10/20 01:10:05;;;;;;;2.17;1.87;;;;;;;7.23;90.36;102545.56;4948458;28;20206;-76
2022/10/20 01:12:43;;;;;;;3.00;2.00;;;;;;;7.24;90.09;102544.75;4952246;29;20197;-75
2022/10/20 01:15:29;;;;;;;3.60;1.60;;;;;;;7.21;89.99;102549.66;4949278;29;20193;-75
2022/10/20 01:18:23;;;;;;;3.30;2.10;;;;;;;7.24;90.47;102539.66;4951877;29;20231;-75
2022/10/20 01:21:18;;;;;;;3.73;2.00;;;;;;;7.21;91.02;102539.47;4952211;29;20233;-75
2022/10/20 01:24:00;;;;;;;3.77;2.00;;;;;;;7.17;90.38;102527.34;4945980;29;20940;-75
2022/10/20 01:26:49;;;;;;;2.73;2.00;;;;;;;7.10;90.58;102517.59;4950700;29;20325;-76
2022/10/20 01:29:26;;;;;;;4.17;2.50;;;;;;;7.12;90.42;102521.09;4948416;29;20187;-76
2022/10/20 01:32:33;;;;;;;3.83;2.17;;;;;;;7.07;89.96;102522.50;4948137;29;20287;-76
2022/10/20 01:35:09;;;;;;;3.80;2.03;;;;;;;7.10;90.96;102517.59;4944646;29;20251;-76
2022/10/20 01:38:05;;;;;;;3.03;2.27;;;;;;;7.12;90.87;102518.53;4951017;29;20733;-76
2022/10/20 01:40:40;;;;;;;2.27;2.07;;;;;;;7.11;91.28;102512.59;4950659;29;20209;-76
2022/10/20 01:43:11;;;;;;;2.30;2.10;;;;;;;7.08;90.96;102520.03;4948993;29;20566;-76
2022/10/20 01:45:41;;;;;;;3.97;1.90;;;;;;;7.03;90.65;102515.44;4949117;28;20630;-76
2022/10/20 01:48:10;;;;;;;3.37;2.07;;;;;;;7.05;90.89;102507.09;4950707;29;20239;-76
2022/10/20 01:50:38;;;;;;;3.50;1.97;;;;;;;7.01;91.12;102512.81;4951226;28;20256;-76
2022/10/20 01:53:04;;;;;;;3.50;2.17;;;;;;;7.02;91.74;102509.50;4951036;28;20204;-76
2022/10/20 01:55:30;;;;;;;4.90;2.13;;;;;;;7.02;90.98;102508.59;4948776;28;20212;-77
2022/10/20 01:58:01;;;;;;;3.47;2.20;;;;;;;7.00;90.96;102502.56;4948740;28;20199;-76
2022/10/20 02:00:27;;;;;;;2.93;2.20;;;;;;;7.02;91.28;102506.06;4950241;28;20300;-76
2022/10/20 02:03:04;;;;;;;3.67;2.03;;;;;;;7.02;90.94;102490.78;4949835;28;20290;-76
2022/10/20 02:05:50;;;;;;;3.77;2.20;;;;;;;7.00;91.64;102489.81;4946354;28;20236;-76
2022/10/20 02:08:21;;;;;;;2.77;2.00;;;;;;;6.94;91.39;102492.88;4952512;28;20201;-76
2022/10/20 02:10:49;;;;;;;5.03;1.97;;;;;;;6.89;91.72;102488.28;4952369;28;20247;-76
2022/10/20 02:13:18;;;;;;;4.33;2.40;;;;;;;6.92;91.71;102491.91;4951187;28;20280;-76
2022/10/20 02:15:49;;;;;;;3.47;2.00;;;;;;;6.86;91.68;102486.44;4947618;29;20291;-76
2022/10/20 02:18:20;;;;;;;3.17;2.30;;;;;;;6.88;92.38;102481.44;4948124;28;20292;-76
2022/10/20 02:20:49;;;;;;;4.13;2.40;;;;;;;6.87;91.82;102477.13;4946786;28;20229;-76
2022/10/20 02:23:16;;;;;;;6.67;2.73;;;;;;;6.82;92.45;102470.88;4948103;28;20211;-76
2022/10/20 02:25:42;;;;;;;2.80;2.40;;;;;;;6.77;92.41;102474.81;4948625;28;20530;-75
2022/10/20 02:28:13;;;;;;;5.00;2.10;;;;;;;6.77;92.16;102468.06;4950873;29;20228;-76
2022/10/20 02:30:39;;;;;;;2.43;2.20;;;;;;;6.73;91.81;102463.56;4941709;29;20221;-75
2022/10/20 02:33:06;;;;;;;3.03;2.10;;;;;;;6.71;92.41;102457.50;4948515;29;20216;-76
2022/10/20 02:35:32;;;;;;;3.27;2.13;;;;;;;6.68;92.38;102451.38;4943619;29;20276;-76
2022/10/20 02:37:59;;;;;;;5.47;2.43;;;;;;;6.62;91.98;102451.88;4950451;29;20198;-76
2022/10/20 02:40:24;;;;;;;2.73;2.20;;;;;;;6.61;92.39;102445.03;4951834;28;20296;-76
2022/10/20 02:42:50;;;;;;;5.03;2.60;;;;;;;6.52;92.15;102447.00;4949578;29;20203;-76
2022/10/20 02:45:16;;;;;;;3.47;2.40;;;;;;;6.52;92.08;102449.53;4950939;28;20193;-75
2022/10/20 02:47:41;;;;;;;6.83;3.33;;;;;;;6.51;92.54;102449.44;4949061;28;20204;-76
2022/10/20 02:50:07;;;;;;;6.27;2.73;;;;;;;6.53;93.23;102446.22;4948625;28;20209;-76
2022/10/20 02:52:33;;;;;;;2.93;2.60;;;;;;;6.51;92.73;102444.34;4963348;28;20197;-76
2022/10/20 02:54:59;;;;;;;4.77;2.53;;;;;;;6.45;92.38;102446.53;4945389;29;20200;-76
2022/10/20 02:57:25;;;;;;;4.10;2.30;;;;;;;6.47;92.64;102450.03;4947305;29;20567;-76
2022/10/20 02:59:50;;;;;;;4.57;2.60;;;;;;;6.38;92.84;102444.38;4944006;29;20221;-76
2022/10/20 03:02:16;;;;;;;4.33;2.43;;;;;;;6.37;92.53;102453.69;4948123;28;20242;-75
2022/10/20 03:04:41;;;;;;;3.33;2.20;;;;;;;6.37;92.94;102453.69;4951413;28;20212;-76
2022/10/20 03:07:07;;;;;;;3.77;2.60;;;;;;;6.36;92.88;102458.69;4951359;28;20196;-76
2022/10/20 03:09:32;;;;;;;4.23;2.70;;;;;;;6.22;92.05;102455.28;4936690;29;20213;-76
2022/10/20 03:11:57;;;;;;;5.33;2.40;;;;;;;6.23;92.72;102454.50;4951056;28;20195;-75
2022/10/20 03:14:23;;;;;;;2.83;2.30;;;;;;;6.19;92.68;102441.50;4950265;29;20621;-76
2022/10/20 03:16:48;;;;;;;2.90;2.37;;;;;;;6.17;92.62;102443.94;4949167;28;20197;-75
2022/10/20 03:19:14;;;;;;;3.00;2.33;;;;;;;6.13;92.43;102436.91;4949966;28;20225;-75
2022/10/20 03:21:39;;;;;;;2.97;2.50;;;;;;;6.13;92.90;102439.44;4950221;28;20236;-75
2022/10/20 03:24:05;;;;;;;5.17;2.70;;;;;;;6.11;93.47;102433.41;4951675;28;20200;-75
2022/10/20 03:26:30;;;;;;;3.13;2.70;;;;;;;6.10;93.07;102436.72;4950763;28;20324;-76
2022/10/20 03:28:56;;;;;;;2.70;2.50;;;;;;;6.07;92.95;102428.91;4951789;28;20661;-76
2022/10/20 03:31:21;;;;;;;4.30;2.70;;;;;;;6.09;93.81;102434.97;4951599;28;20583;-76
2022/10/20 03:33:47;;;;;;;3.30;2.70;;;;;;;6.09;93.27;102439.16;4950042;29;20205;-76
2022/10/20 03:36:12;;;;;;;3.77;2.60;;;;;;;6.10;93.72;102431.63;4951284;28;20197;-76
2022/10/20 03:38:40;;;;;;;6.57;2.87;;;;;;;6.07;94.41;102435.63;4950156;29;20217;-76
2022/10/20 03:41:06;;;;;;;4.47;2.80;;;;;;;6.08;94.01;102433.19;4962771;28;20587;-76
2022/10/20 03:43:31;;;;;;;4.37;2.77;;;;;;;6.07;94.34;102433.09;4950065;28;20268;-76
2022/10/20 03:46:02;;;;;;;4.70;3.00;;;;;;;6.06;93.91;102432.22;4951254;28;20605;-76
2022/10/20 03:48:28;;;;;;;5.27;3.30;;;;;;;6.04;94.58;102428.69;4949884;29;20413;-76
2022/10/20 03:50:53;;;;;;;7.13;3.30;;;;;;;6.03;94.09;102426.09;4949739;29;20221;-76
2022/10/20 03:53:19;;;;;;;4.33;3.20;;;;;;;5.98;94.68;102424.91;4951485;28;20200;-76
2022/10/20 03:55:44;;;;;;;7.07;2.77;;;;;;;5.94;94.27;102418.72;4947959;28;20240;-76
2022/10/20 03:58:10;;;;;;;3.67;2.93;;;;;;;5.88;94.63;102418.34;4950012;29;20678;-76
2022/10/20 04:00:35;;;;;;;5.23;3.47;;;;;;;5.89;94.06;102414.16;4945904;29;20303;-76
2022/10/20 04:03:00;;;;;;;5.33;3.23;;;;;;;5.95;94.51;102419.63;4950510;29;20252;-76
2022/10/20 04:05:26;;;;;;;4.73;3.50;;;;;;;5.93;94.90;102414.44;4951240;28;20193;-76
2022/10/20 04:07:51;;;;;;;3.63;3.10;;;;;;;5.91;95.04;102418.56;4951023;28;20207;-76
2022/10/20 04:10:17;;;;;;;5.87;3.13;;;;;;;5.92;95.43;102415.22;4950159;28;20292;-75
2022/10/20 04:12:43;;;;;;;4.73;3.23;;;;;;;5.99;95.63;102409.72;4950454;28;20198;-75
2022/10/20 04:15:08;;;;;;;7.63;4.07;;;;;;;5.97;95.38;102407.88;4954851;28;20193;-75
2022/10/20 04:17:35;;;;;;;7.13;3.73;;;;;;;5.96;95.79;102403.59;4952347;28;20185;-76
2022/10/20 04:20:01;;;;;;;7.90;4.20;;;;;;;5.93;96.37;102411.00;4954430;28;20255;-75
2022/10/20 04:22:27;;;;;;;7.20;3.70;;;;;;;5.95;95.89;102407.78;4952194;29;20197;-74
2022/10/20 04:24:52;;;;;;;7.80;4.43;;;;;;;5.95;95.81;102406.91;4954792;28;20624;-75
2022/10/20 04:27:18;;;;;;;8.00;4.17;;;;;;;5.94;95.95;102400.94;4954441;28;20207;-76
2022/10/20 04:29:43;;;;;;;4.93;3.80;;;;;;;5.94;96.56;102400.09;4954188;28;20201;-76
2022/10/20 04:32:08;;;;;;;7.57;4.13;;;;;;;5.95;96.17;102404.38;4939892;28;20301;-76
2022/10/20 04:34:35;;;;;;;8.53;3.93;;;;;;;5.90;95.98;102403.22;4950248;29;20276;-76
2022/10/20 04:37:00;;;;;;;7.07;4.30;;;;;;;5.86;96.62;102394.53;4952754;28;20276;-76
2022/10/20 04:39:26;;;;;;;6.03;3.77;;;;;;;5.86;96.74;102394.53;4949574;29;20291;-76
2022/10/20 04:41:51;;;;;;;7.00;3.87;;;;;;;5.90;96.24;102391.34;4944730;28;20273;-76
2022/10/20 04:44:17;;;;;;;5.07;4.30;;;;;;;5.88;96.45;102390.41;4951735;28;20824;-76
2022/10/20 04:46:42;;;;;;;4.93;3.50;;;;;;;5.85;96.57;102386.78;4951255;28;20650;-75
2022/10/20 04:49:08;;;;;;;4.73;4.17;;;;;;;5.87;97.33;102396.28;4950743;28;20805;-76
2022/10/20 04:51:34;;;;;;;6.57;4.10;;;;;;;5.83;96.71;102386.69;4952858;29;20794;-76
2022/10/20 04:53:59;;;;;;;6.63;3.80;;;;;;;5.85;96.82;102380.03;4954163;28;20197;-76
2022/10/20 04:56:25;;;;;;;4.17;3.70;;;;;;;5.81;96.85;102383.16;4952850;28;20224;-76
2022/10/20 04:58:56;;;;;;;6.20;4.30;;;;;;;5.79;96.77;102377.09;4950460;28;20210;-76
2022/10/20 05:01:24;;;;;;;5.00;4.40;;;;;;;5.81;96.56;102377.22;4945050;29;20216;-75
2022/10/20 05:03:50;;;;;;;8.50;4.63;;;;;;;5.81;97.56;102372.13;4949590;28;20253;-75
2022/10/20 05:06:36;;;;;;;6.10;3.93;;;;;;;5.82;97.41;102367.16;4947587;29;20196;-75
2022/10/20 05:09:04;;;;;;;7.00;4.10;;;;;;;5.83;97.38;102365.47;4949832;29;20678;-75
2022/10/20 05:11:33;;;;;;;5.33;4.30;;;;;;;5.81;97.21;102354.34;4948360;28;20241;-75
2022/10/20 05:13:59;;;;;;;5.43;4.40;;;;;;;5.82;97.18;102354.44;4945798;29;20208;-74
2022/10/20 05:16:24;;;;;;;7.10;4.47;;;;;;;5.84;97.55;102355.41;4948470;29;20189;-75
2022/10/20 05:18:53;;;;;;;8.30;4.70;;;;;;;5.85;97.47;102341.91;4953223;28;20215;-75
2022/10/20 05:21:22;;;;;;;5.83;4.43;;;;;;;5.83;97.35;102335.88;4952545;28;20232;-75
2022/10/20 05:23:48;;;;;;;6.40;4.30;;;;;;;5.82;98.12;102333.22;4948742;28;20558;-75
2022/10/20 05:26:16;;;;;;;5.40;4.37;;;;;;;5.83;97.83;102327.34;4952738;28;20193;-75
2022/10/20 05:28:46;;;;;;;6.17;4.60;;;;;;;5.82;97.94;102315.44;4934136;29;20255;-75
2022/10/20 05:31:13;;;;;;;7.97;5.07;;;;;;;5.79;97.92;102321.16;4951352;28;20220;-75
2022/10/20 05:33:42;;;;;;;6.67;4.40;;;;;;;5.80;98.04;102304.28;4945174;28;20264;-76
2022/10/20 05:36:09;;;;;;;6.73;4.97;;;;;;;5.83;98.50;102302.81;4948503;29;20252;-76
2022/10/20 05:38:35;;;;;;;7.57;5.30;;;;;;;5.88;98.63;102303.09;4944064;29;20589;-76
2022/10/20 05:41:12;;;;;;;6.87;5.03;;;;;;;5.90;98.75;102307.47;4945024;29;20223;-75
2022/10/20 05:43:38;;;;;;;6.73;5.10;;;;;;;5.89;98.46;102294.72;4949333;28;20205;-78
2022/10/20 05:46:05;;;;;;;7.03;5.43;;;;;;;5.93;98.80;102300.06;4944855;29;20197;-77
2022/10/20 05:48:31;;;;;;;7.83;5.57;;;;;;;5.92;99.25;102299.97;4954007;28;20550;-78
2022/10/20 05:51:21;;;;;;;5.80;5.03;;;;;;;5.95;99.41;102295.06;4951307;29;20268;-77
2022/10/20 05:53:46;;;;;;;8.33;5.23;;;;;;;5.92;99.16;102294.88;4945652;28;20252;-75
2022/10/20 05:56:15;;;;;;;8.87;5.57;;;;;;;5.95;99.12;102290.84;4952097;28;20185;-78
2022/10/20 05:58:42;;;;;;;7.47;5.37;;;;;;;5.97;99.23;102294.38;4949832;29;20217;-77
2022/10/20 06:01:16;;;;;;;6.77;5.33;;;;;;;5.96;99.08;102291.75;4949213;28;20220;-77
2022/10/20 06:03:45;;;;;;;9.20;5.60;;;;;;;5.93;99.77;102292.44;4942742;28;20255;-76
2022/10/20 06:06:11;;;;;;;6.93;5.23;;;;;;;5.99;99.16;102297.88;4948735;28;20196;-77
2022/10/20 06:08:36;;;;;;;8.63;5.63;;;;;;;5.97;99.36;102293.50;4943865;28;20189;-77
2022/10/20 06:11:04;;;;;;;6.73;5.20;;;;;;;6.00;99.08;102297.13;4945029;28;20236;-77
2022/10/20 06:13:31;;;;;;;7.57;4.77;;;;;;;6.00;99.13;102292.03;4946824;28;20618;-78
2022/10/20 06:16:19;;;;;;;7.83;4.87;;;;;;;6.03;99.00;102286.25;4950327;28;20240;-77
2022/10/20 06:18:44;;;;;;;7.77;5.00;;;;;;;6.06;98.51;102286.41;4952534;28;20845;-76
2022/10/20 06:21:15;;;;;;;5.97;4.63;;;;;;;6.07;98.66;102286.53;4952289;28;20295;-76
2022/10/20 06:23:41;;;;;;;7.80;4.70;;;;;;;6.10;98.62;102284.16;4950459;28;20193;-77
2022/10/20 06:26:18;;;;;;;10.03;5.03;;;;;;;6.14;99.17;102286.13;4950576;29;20748;-77
2022/10/20 06:28:46;;;;;;;6.00;4.50;;;;;;;6.22;98.35;102278.94;4948221;28;20280;-76
2022/10/20 06:31:20;;;;;;;9.27;5.17;;;;;;;6.25;98.39;102274.91;4949074;28;20224;-75
2022/10/20 06:33:47;;;;;;;8.13;5.20;;;;;;;6.31;98.64;102271.84;4936350;28;20189;-76
2022/10/20 06:36:13;;;;;;;5.80;4.83;;;;;;;6.39;99.06;102270.63;4943404;28;20280;-76
2022/10/20 06:38:39;;;;;;;6.53;4.50;;;;;;;6.44;98.71;102276.88;4947146;28;20590;-76
2022/10/20 06:41:07;;;;;;;6.03;4.57;;;;;;;6.51;98.54;102273.91;4933946;29;20236;-77
2022/10/20 06:43:33;;;;;;;7.63;4.73;;;;;;;6.57;98.93;102272.59;4949015;28;20189;-77
2022/10/20 06:46:00;;;;;;;5.30;4.13;;;;;;;6.65;98.25;102267.94;4950683;28;20200;-76
2022/10/20 06:48:27;;;;;;;6.67;4.47;;;;;;;6.67;97.55;102272.31;4950615;29;20662;-76
2022/10/20 06:50:57;;;;;;;6.27;4.30;;;;;;;6.76;97.61;102277.06;4949870;28;20224;-77
2022/10/20 06:53:22;;;;;;;7.37;4.47;;;;;;;6.82;97.60;102275.75;4951340;28;20185;-77
2022/10/20 06:55:59;;;;;;;5.20;4.23;;;;;;;6.89;96.81;102262.59;4949840;28;20728;-77
2022/10/20 06:58:25;;;;;;;7.43;4.30;;;;;;;6.96;96.77;102267.22;4950069;29;20193;-77
2022/10/20 07:01:22;;;;;;;6.27;4.10;;;;;;;7.06;96.46;102268.63;4947980;28;20214;-77
2022/10/20 07:03:47;;;;;;;5.87;4.27;;;;;;;7.12;96.60;102262.22;4947323;29;20214;-77
2022/10/20 07:06:25;;;;;;;8.57;3.87;;;;;;;7.27;95.11;102265.59;4951780;28;20193;-77
2022/10/20 07:09:02;;;;;;;4.30;3.90;;;;;;;7.37;93.81;102265.31;4949062;29;20216;-76
2022/10/20 07:11:29;;;;;;;6.47;4.10;;;;;;;7.55;93.83;102268.00;4948634;29;20221;-77
2022/10/20 07:13:57;;;;;;;5.97;3.60;;;;;;;7.59;93.67;102264.78;4966451;28;20198;-78
2022/10/20 07:16:25;;;;;;;6.10;3.47;;;;;;;7.69;92.83;102265.38;4949017;29;20208;-77
2022/10/20 07:18:51;;;;;;;4.70;3.53;;;;;;;7.85;91.71;102267.06;4950299;28;20191;-76
2022/10/20 07:21:19;;;;;;;6.33;3.37;;;;;;;7.97;91.56;102268.59;4950583;29;20276;-76
2022/10/20 07:23:44;;;;;;;5.60;3.37;;;;;;;8.10;89.98;102267.53;4949151;29;20201;-77
2022/10/20 07:26:16;;;;;;;5.70;3.50;;;;;;;8.20;89.73;102268.13;4950580;28;20201;-78
2022/10/20 07:28:43;;;;;;;4.20;3.40;;;;;;;8.19;89.86;102258.72;4948192;28;20228;-77
2022/10/20 07:31:21;;;;;;;4.23;3.20;;;;;;;8.35;88.71;102268.06;4951559;28;20211;-77
2022/10/20 07:33:47;;;;;;;4.33;3.40;;;;;;;8.63;87.40;102253.31;4950421;29;20219;-77
2022/10/20 07:36:22;;;;;;;6.10;3.20;;;;;;;8.68;87.02;102251.88;4951859;28;20655;-77
2022/10/20 07:38:50;;;;;;;8.63;3.13;;;;;;;8.72;87.04;102238.47;4939244;28;20243;-77
2022/10/20 07:41:16;;;;;;;5.03;3.60;;;;;;;8.57;87.59;102230.91;4950239;28;20217;-77
2022/10/20 07:43:42;;;;;;;3.90;3.00;;;;;;;8.70;86.34;102230.72;4951398;28;20196;-77
2022/10/20 07:46:09;;;;;;;4.07;2.80;;;;;;;8.74;86.37;102227.53;4951464;28;20193;-77
2022/10/20 07:48:34;;;;;;;4.50;3.23;;;;;;;8.94;85.87;102216.56;4953472;28;20220;-77
2022/10/20 07:51:33;;;;;;;5.00;3.10;;;;;;;8.98;86.22;102202.28;4953458;28;20300;-77
2022/10/20 07:54:01;;;;;;;4.73;3.17;;;;;;;9.23;85.07;102198.41;4954664;29;20188;-77
2022/10/20 07:56:30;;;;;;;5.47;3.03;;;;;;;9.04;84.74;102197.47;4953397;28;20200;-78
2022/10/20 07:58:55;;;;;;;4.67;3.23;;;;;;;9.38;84.49;102194.00;4953464;28;20189;-76
2022/10/20 08:01:21;;;;;;;3.80;2.73;;;;;;;9.60;83.32;102180.47;4954322;28;20213;-77
2022/10/20 08:03:46;;;;;;;5.57;3.07;;;;;;;9.63;82.60;102181.47;4955086;28;20193;-76
2022/10/20 08:06:11;;;;;;;4.17;2.77;;;;;;;9.57;83.14;102185.44;4953323;28;20193;-77
2022/10/20 08:08:37;;;;;;;4.73;3.00;;;;;;;9.93;82.37;102184.50;4954803;28;20188;-78
2022/10/20 08:11:03;;;;;;;4.30;2.83;;;;;;;10.09;81.67;102174.19;4952264;28;20223;-77
2022/10/20 08:13:30;;;;;;;3.60;2.77;;;;;;;10.16;81.01;102174.50;4954900;28;20208;-77
2022/10/20 08:15:55;;;;;;;4.57;2.80;;;;;;;10.23;80.24;102167.97;4951165;29;20193;-77
2022/10/20 08:18:21;;;;;;;4.00;2.90;;;;;;;10.13;80.37;102164.13;4950308;29;20194;-77
2022/10/20 08:20:46;;;;;;;4.93;2.70;;;;;;;10.42;79.21;102160.22;4952723;28;20698;-77
2022/10/20 08:23:12;;;;;;;3.90;2.70;;;;;;;10.31;79.35;102162.34;4953701;28;20605;-77
2022/10/20 08:25:37;;;;;;;4.43;3.00;;;;;;;10.65;78.51;102159.47;4952471;29;20271;-77
2022/10/20 08:28:03;;;;;;;3.47;2.67;;;;;;;10.62;77.71;102156.78;4954496;28;20189;-77
2022/10/20 08:30:30;;;;;;;4.53;2.90;;;;;;;10.91;76.71;102146.84;4952702;28;20709;-77
2022/10/20 08:32:56;;;;;;;4.97;2.73;;;;;;;10.84;76.90;102132.09;4951179;29;20384;-77
2022/10/20 08:35:21;;;;;;;4.03;2.70;;;;;;;11.17;76.20;102129.91;4953742;28;20275;-78
2022/10/20 08:37:47;;;;;;;5.00;2.57;;;;;;;11.30;75.60;102121.84;4953813;28;20197;-77
2022/10/20 08:40:18;;;;;;;4.13;2.43;;;;;;;11.05;75.40;102125.19;4952789;28;20213;-80
2022/10/20 08:42:45;;;;;;;4.13;2.50;;;;;;;11.33;74.97;102112.59;4950249;29;20618;-79
2022/10/20 08:45:15;;;;;;;2.73;2.20;;;;;;;11.66;74.91;102103.56;4954512;28;20199;-80
2022/10/20 08:47:42;;;;;;;4.13;2.50;;;;;;;11.51;74.44;102104.66;4952167;28;20280;-78
2022/10/20 08:50:11;;;;;;;5.97;2.50;;;;;;;12.09;72.34;102090.50;4952027;28;20328;-80
2022/10/20 08:52:40;;;;;;;3.10;2.30;;;;;;;12.35;71.35;102074.25;4954787;28;20197;-78
2022/10/20 08:55:06;;;;;;;4.53;2.20;;;;;;;13.02;68.77;102060.06;4948935;29;20199;-79
2022/10/20 08:57:34;;;;;;;3.83;2.50;;;;;;;13.36;67.23;102070.50;4921327;28;20716;-78
2022/10/20 09:00:19;;;;;;;3.43;2.40;;;;;;;14.32;63.33;102070.47;4951839;28;20224;-77
2022/10/20 09:02:46;;;;;;;3.60;2.10;;;;;;;14.18;63.09;102069.22;4951361;29;20281;-77
2022/10/20 09:05:14;;;;;;;2.47;2.00;;;;;;;15.00;59.96;102062.56;4952925;29;20232;-80
2022/10/20 09:07:40;;;;;;;3.97;2.20;;;;;;;15.99;58.65;102051.63;4952603;28;20790;-78
2022/10/20 09:10:32;;;;;;;3.33;2.07;;;;;;;15.89;57.27;102054.00;4952835;28;20219;-79
2022/10/20 09:13:00;;;;;;;5.00;2.20;;;;;;;17.06;53.89;102053.22;4953008;28;20295;-79
2022/10/20 09:15:26;;;;;;;2.77;2.10;;;;;;;17.29;52.76;102042.31;4953389;28;20204;-79
2022/10/20 09:18:09;;;;;;;3.20;2.10;;;;;;;18.03;51.66;102037.88;4911170;28;20247;-80
2022/10/20 09:20:45;;;;;;;4.17;2.27;;;;;;;18.66;49.32;102036.63;4948963;29;20220;-79
2022/10/20 09:23:16;;;;;;;2.93;2.03;;;;;;;18.99;48.86;102030.72;4952579;29;20739;-80
2022/10/20 09:25:44;;;;;;;4.00;2.27;;;;;;;18.54;49.93;102033.09;4953921;29;20188;-81
2022/10/20 09:28:25;;;;;;;5.30;2.30;;;;;;;17.96;51.00;102011.03;4954431;29;20185;-78
2022/10/20 09:30:53;;;;;;;4.20;2.33;;;;;;;19.02;49.01;102005.63;4954512;28;20216;-79
2022/10/20 09:33:29;;;;;;;2.37;1.80;;;;;;;19.62;47.00;102002.38;4956042;28;20185;-80
2022/10/20 09:36:01;;;;;;;2.27;1.73;;;;;;;19.01;47.59;102005.63;4969700;28;20192;-80
2022/10/20 09:38:28;;;;;;;3.90;2.10;;;;;;;19.55;46.48;101998.91;4950922;29;20223;-80
2022/10/20 09:41:19;;;;;;;4.17;2.30;;;;;;;20.12;45.82;101998.94;4953574;29;20205;-79
2022/10/20 09:43:57;;;;;;;6.13;2.10;;;;;;;20.98;44.07;101985.69;4953739;29;20193;-79
2022/10/20 09:46:31;;;;;;;2.75;2.03;;;;;;;21.36;42.85;101981.13;4948681;29;20193;-81
2022/10/20 09:48:57;;;;;;;2.33;1.90;;;;;;;21.20;43.14;101985.59;4949446;29;20213;-79
2022/10/20 09:51:26;;;;;;;5.15;2.00;;;;;;;22.87;39.51;101981.47;4950989;28;20217;-80
2022/10/20 09:53:53;;;;;;;3.80;2.08;;;;;;;23.30;38.98;101974.81;4948934;28;20197;-79
2022/10/20 09:56:28;;;;;;;2.67;1.90;;;;;;;24.24;37.76;101982.00;4948670;28;20197;-79
2022/10/20 09:58:55;;;;;;;3.45;1.98;;;;;;;21.58;40.73;102003.56;4938832;28;20283;-79
2022/10/20 10:01:21;;;;;;;3.10;1.98;;;;;;;23.08;38.91;101991.66;4932461;29;20209;-77
2022/10/20 10:03:52;;;;;;;3.35;1.83;;;;;;;24.61;36.31;101986.53;4951877;28;20192;-80
2022/10/20 10:06:29;;;;;;;2.55;1.70;;;;;;;24.38;36.46;101986.09;4951610;28;20839;-79
2022/10/20 10:08:56;;;;;;;3.40;1.80;;;;;;;25.33;35.51;101971.88;4949606;28;20221;-79
2022/10/20 10:11:30;;;;;;;3.03;1.70;;;;;;;25.89;33.88;101965.25;4951524;28;20776;-78
2022/10/20 10:13:55;;;;;;;1.92;1.73;;;;;;;23.82;36.50;101964.41;4952465;28;20774;-78
2022/10/20 10:16:25;;;;;;;3.33;2.25;;;;;;;23.61;37.29;101965.59;4950505;28;20276;-77
2022/10/20 10:19:01;;;;;;;2.10;1.90;;;;;;;24.68;36.00;101961.94;4946486;29;20186;-79
2022/10/20 10:21:29;;;;;;;2.13;1.90;;;;;;;25.41;33.15;101953.34;4948211;29;20204;-78
2022/10/20 10:24:04;;;;;;;2.05;1.85;;;;;;;25.85;33.26;101935.59;4943659;29;20970;-77
2022/10/20 10:26:41;;;;;;;1.83;1.52;;;;;;;26.35;33.53;101945.66;4940620;28;21007;-79
2022/10/20 10:29:16;;;;;;;1.50;1.40;;;;;;;28.00;30.80;101939.63;4954945;29;20563;-79
2022/10/20 10:31:51;;;;;;;2.33;1.80;;;;;;;26.34;32.20;101948.31;4900858;28;20287;-78
2022/10/20 10:34:16;;;;;;;3.30;1.70;;;;;;;26.92;30.67;101930.84;4954833;28;20196;-78
2022/10/20 10:36:42;;;;;;;3.20;1.70;;;;;;;26.23;32.44;101927.59;4955453;28;20335;-80
2022/10/20 10:39:14;;;;;;;2.92;1.83;;;;;;;27.44;30.48;101909.06;4869492;28;20688;-80
2022/10/20 10:41:59;;;;;;;2.97;1.90;;;;;;;29.26;28.83;101900.53;4873872;29;20217;-77
2022/10/20 10:44:33;;;;;;;2.03;1.83;;;;;;;31.36;26.83;101885.66;4950381;29;20606;-78
2022/10/20 10:47:29;;;;;;;2.45;1.98;;;;;;;30.67;26.38;101886.41;4950237;29;20213;-79
2022/10/20 10:50:16;;;;;;;2.83;2.10;;;;;;;30.19;27.14;101893.03;4964754;28;20225;-78
2022/10/20 10:52:53;;;;;;;1.92;1.65;;;;;;;27.63;29.42;101889.09;4966491;28;20923;-78
2022/10/20 10:55:27;;;;;;;2.40;2.00;;;;;;;23.71;34.97;101890.47;4949880;29;20188;-79
2022/10/20 10:58:14;;;;;;;2.13;1.98;;;;;;;23.45;36.74;101887.41;4933987;28;20237;-79
2022/10/20 11:01:06;;;;;;;2.65;1.70;;;;;;;25.25;33.73;101883.75;4948565;29;20675;-79
2022/10/20 11:03:53;;;;;;;2.28;2.03;;;;;;;27.73;29.52;101851.81;4954036;29;20213;-78
2022/10/20 11:06:26;;;;;;;1.77;1.65;;;;;;;28.98;27.65;101855.94;4949227;28;20239;-79
2022/10/20 11:08:59;;;;;;;2.10;2.00;;;;;;;31.28;25.83;101829.56;4954824;29;20337;-78
2022/10/20 11:11:52;;;;;;;2.97;2.17;;;;;;;33.07;24.17;101820.63;4956594;28;20407;-79
2022/10/20 11:14:45;;;;;;;4.45;1.95;;;;;;;30.87;26.47;101817.47;4954589;29;20536;-79
2022/10/20 11:17:17;;;;;;;2.45;2.17;;;;;;;31.76;25.15;101821.75;4940939;29;20980;-79
2022/10/20 11:19:45;;;;;;;2.35;2.13;;;;;;;33.72;23.85;101806.94;4956351;29;20225;-79
2022/10/20 11:22:40;;;;;;;2.83;2.40;;;;;;;30.97;25.83;101810.81;4956225;29;20201;-79
2022/10/20 11:25:24;;;;;;;2.78;2.30;;;;;;;31.55;25.35;101806.97;4947662;29;20209;-78
2022/10/20 11:27:50;;;;;;;3.22;2.33;;;;;;;29.86;28.28;101816.94;4950621;29;20192;-79
2022/10/20 11:30:20;;;;;;;3.67;2.58;;;;;;;32.01;24.78;101802.75;4958885;28;20882;-79
2022/10/20 11:33:11;;;;;;;2.30;2.10;;;;;;;28.54;28.01;101792.63;4957845;28;20197;-80
2022/10/20 11:35:52;;;;;;;4.47;2.45;;;;;;;31.90;25.38;101775.97;4952486;29;20195;-80
2022/10/20 11:38:30;;;;;;;2.30;2.10;;;;;;;33.92;22.92;101769.34;4938621;28;20201;-80
2022/10/20 11:41:04;;;;;;;3.03;2.17;;;;;;;30.52;25.46;101778.59;4953601;28;20307;-79
2022/10/20 11:43:51;;;;;;;3.17;2.67;;;;;;;30.67;26.06;101771.72;4953351;29;20244;-81
2022/10/20 11:46:23;;;;;;;3.25;2.58;;;;;;;31.69;23.95;101756.75;4927384;29;20209;-81